Time;durP1;ratioP1;P1;durP2;ratioP2;P2;SDS_P1;SDS_P2;PMS_P1;PMS_P2;Temp;Humidity;BMP_temperature;BMP_pressure;BME280_temperature;BME280_humidity;BME280_pressure;Samples;Min_cycle;Max_cycle;Signal;HPM_P1;HPM_P2
2022/09/16 00:01:10;;;;;;;6.23;5.73;;;14.80;99.90;;;;;;5004474;28;20560;-69
2022/09/16 00:03:37;;;;;;;5.90;5.50;;;14.90;99.90;;;;;;4995655;28;20971;-69
2022/09/16 00:06:05;;;;;;;6.60;6.07;;;14.90;99.90;;;;;;5016653;28;20467;-68
2022/09/16 00:08:32;;;;;;;6.30;5.70;;;14.90;99.90;;;;;;5011077;28;20977;-69
2022/09/16 00:11:00;;;;;;;6.43;5.93;;;14.90;99.90;;;;;;5010247;28;20503;-69
2022/09/16 00:13:28;;;;;;;6.77;5.80;;;14.90;99.90;;;;;;5001900;28;20544;-68
2022/09/16 00:15:55;;;;;;;7.67;5.83;;;14.90;99.90;;;;;;5008790;28;21092;-69
2022/09/16 00:18:23;;;;;;;6.67;6.00;;;14.90;99.90;;;;;;5010125;28;20484;-69
2022/09/16 00:20:53;;;;;;;6.30;5.70;;;14.90;99.90;;;;;;5011275;28;20483;-69
2022/09/16 00:23:20;;;;;;;6.90;6.00;;;14.90;99.90;;;;;;5012029;28;20440;-68
2022/09/16 00:25:52;;;;;;;5.83;5.33;;;15.00;99.90;;;;;;5011841;28;20440;-69
2022/09/16 00:28:20;;;;;;;6.23;5.60;;;15.00;99.90;;;;;;5013678;28;20491;-69
2022/09/16 00:30:47;;;;;;;5.50;5.10;;;15.00;99.90;;;;;;5021335;28;20467;-69
2022/09/16 00:33:14;;;;;;;6.10;5.63;;;15.00;99.90;;;;;;5008788;28;20556;-68
2022/09/16 00:35:43;;;;;;;5.57;4.97;;;15.00;99.90;;;;;;5014912;28;20545;-69
2022/09/16 00:38:10;;;;;;;5.80;5.30;;;15.10;99.90;;;;;;5031427;28;20472;-69
2022/09/16 00:40:44;;;;;;;6.30;5.80;;;15.10;99.90;;;;;;5031695;28;20444;-69
2022/09/16 00:43:13;;;;;;;5.07;4.60;;;15.10;99.90;;;;;;5031330;28;21045;-68
2022/09/16 00:45:41;;;;;;;5.97;5.50;;;15.10;99.90;;;;;;5016619;28;20528;-69
2022/09/16 00:48:14;;;;;;;5.70;5.20;;;15.10;99.90;;;;;;5010132;28;20573;-69
2022/09/16 00:50:47;;;;;;;5.27;4.83;;;15.20;99.90;;;;;;5010587;28;20455;-69
2022/09/16 00:53:20;;;;;;;5.17;4.53;;;15.40;99.90;;;;;;4999164;28;20541;-69
2022/09/16 00:55:48;;;;;;;5.73;5.07;;;15.20;99.90;;;;;;4992329;28;20548;-68
2022/09/16 00:58:23;;;;;;;6.60;6.00;;;15.20;99.90;;;;;;4993488;28;20484;-68
2022/09/16 01:00:51;;;;;;;6.20;5.70;;;15.20;99.90;;;;;;5008119;28;20471;-68
2022/09/16 01:03:19;;;;;;;5.97;5.47;;;15.30;99.90;;;;;;5011653;28;20518;-68
2022/09/16 01:05:48;;;;;;;6.23;5.63;;;15.30;99.90;;;;;;5009573;28;20457;-68
2022/09/16 01:08:16;;;;;;;7.53;5.93;;;15.30;99.90;;;;;;5010826;28;20488;-69
2022/09/16 01:10:44;;;;;;;5.93;5.43;;;15.50;99.90;;;;;;5013371;28;20825;-68
2022/09/16 01:13:14;;;;;;;6.40;5.57;;;15.20;99.90;;;;;;5004406;28;20556;-68
2022/09/16 01:15:47;;;;;;;6.00;5.40;;;15.20;99.90;;;;;;5006556;28;20519;-68
2022/09/16 01:18:21;;;;;;;6.13;5.67;;;15.20;99.90;;;;;;4996068;28;20468;-69
2022/09/16 01:21:18;;;;;;;6.27;5.77;;;15.20;99.90;;;;;;4995667;28;20944;-68
2022/09/16 01:24:10;;;;;;;6.30;5.70;;;15.20;99.90;;;;;;4997884;28;20467;-69
2022/09/16 01:27:06;;;;;;;6.97;6.27;;;15.20;99.90;;;;;;5015209;28;20444;-69
2022/09/16 01:30:14;;;;;;;6.30;5.80;;;15.10;99.90;;;;;;5018045;28;21072;-69
2022/09/16 01:33:07;;;;;;;7.33;6.63;;;15.10;99.90;;;;;;4979788;28;20460;-69
2022/09/16 01:35:49;;;;;;;5.83;5.27;;;15.10;99.90;;;;;;5014165;28;20585;-69
2022/09/16 01:38:28;;;;;;;6.00;5.50;;;15.10;99.90;;;;;;5003971;28;21021;-69
2022/09/16 01:41:02;;;;;;;6.50;6.00;;;15.00;99.90;;;;;;5022052;28;20491;-69
2022/09/16 01:43:40;;;;;;;5.93;5.43;;;15.00;99.90;;;;;;5012223;28;20457;-69
2022/09/16 01:46:18;;;;;;;5.63;5.13;;;15.00;99.90;;;;;;5026425;28;20466;-69
2022/09/16 01:48:55;;;;;;;6.30;5.73;;;14.90;99.90;;;;;;5031392;28;20482;-69
2022/09/16 01:51:27;;;;;;;6.90;4.87;;;14.90;99.90;;;;;;5034300;28;20442;-69
2022/09/16 01:54:03;;;;;;;5.87;5.47;;;14.80;99.90;;;;;;5028468;28;20464;-69
2022/09/16 01:56:36;;;;;;;4.90;4.60;;;14.80;99.90;;;;;;5016247;28;20494;-69
2022/09/16 01:59:09;;;;;;;5.70;4.80;;;14.70;99.90;;;;;;5012255;28;20582;-69
2022/09/16 02:01:43;;;;;;;5.50;5.00;;;14.60;99.90;;;;;;5019917;28;21092;-69
2022/09/16 02:04:16;;;;;;;5.20;4.70;;;14.60;99.90;;;;;;5032467;28;20463;-69
2022/09/16 02:06:45;;;;;;;5.37;4.87;;;14.60;99.90;;;;;;5019364;28;20528;-69
2022/09/16 02:09:17;;;;;;;5.30;4.83;;;14.50;99.90;;;;;;5012810;28;20559;-69
2022/09/16 02:11:49;;;;;;;6.07;4.90;;;14.50;99.90;;;;;;5009499;28;20519;-70
2022/09/16 02:14:19;;;;;;;6.23;4.67;;;14.50;99.90;;;;;;5016902;28;21040;-69
2022/09/16 02:16:54;;;;;;;5.97;5.10;;;14.40;99.90;;;;;;5013695;28;20495;-69
2022/09/16 02:19:26;;;;;;;4.93;4.43;;;14.40;99.90;;;;;;5009443;28;20994;-69
2022/09/16 02:21:55;;;;;;;4.73;4.33;;;14.30;99.90;;;;;;4998021;28;20452;-69
2022/09/16 02:24:26;;;;;;;5.50;4.20;;;14.30;99.90;;;;;;5014146;28;20503;-69
2022/09/16 02:26:57;;;;;;;4.87;4.47;;;14.20;99.90;;;;;;5012796;28;20456;-69
2022/09/16 02:29:26;;;;;;;5.40;4.90;;;14.20;99.90;;;;;;5019255;28;20502;-69
2022/09/16 02:31:59;;;;;;;8.87;5.40;;;14.20;99.90;;;;;;5021818;28;20824;-69
2022/09/16 02:34:32;;;;;;;4.77;4.37;;;14.20;99.90;;;;;;5031811;28;20550;-69
2022/09/16 02:37:06;;;;;;;6.87;4.80;;;14.20;99.90;;;;;;5013223;28;20490;-69
2022/09/16 02:39:38;;;;;;;5.47;4.10;;;14.20;99.90;;;;;;5008707;28;20507;-69
2022/09/16 02:42:06;;;;;;;4.40;3.97;;;14.10;99.90;;;;;;5022478;28;20453;-69
2022/09/16 02:44:34;;;;;;;4.20;3.80;;;14.10;99.90;;;;;;5021017;28;20617;-69
2022/09/16 02:47:09;;;;;;;4.80;3.40;;;14.10;99.90;;;;;;5012418;28;20967;-69
2022/09/16 02:49:43;;;;;;;4.27;3.73;;;14.10;99.90;;;;;;5012631;28;20513;-69
2022/09/16 02:52:17;;;;;;;4.90;4.30;;;14.10;99.90;;;;;;5013496;28;20451;-69
2022/09/16 02:54:52;;;;;;;5.40;4.00;;;14.10;99.90;;;;;;5012682;28;20499;-69
2022/09/16 02:57:20;;;;;;;5.13;3.70;;;14.10;99.90;;;;;;5012737;28;20581;-69
2022/09/16 02:59:48;;;;;;;5.40;3.70;;;14.00;99.90;;;;;;5012282;28;20479;-69
2022/09/16 03:02:15;;;;;;;4.77;4.27;;;14.00;99.90;;;;;;5003901;28;20452;-69
2022/09/16 03:04:43;;;;;;;5.13;3.60;;;14.00;99.90;;;;;;5011112;28;20821;-69
2022/09/16 03:07:12;;;;;;;3.47;3.17;;;14.00;99.90;;;;;;5012952;28;20530;-69
2022/09/16 03:09:42;;;;;;;3.70;3.42;;;13.90;99.90;;;;;;5011790;28;20460;-69
2022/09/16 03:12:22;;;;;;;4.40;3.70;;;13.90;99.90;;;;;;5013201;28;20290;-69
2022/09/16 03:15:20;;;;;;;5.00;3.60;;;13.90;99.90;;;;;;5012896;28;20482;-69
2022/09/16 03:18:02;;;;;;;4.57;3.57;;;13.90;99.90;;;;;;5012428;28;20476;-69
2022/09/16 03:20:41;;;;;;;3.60;3.30;;;13.90;99.90;;;;;;5011841;28;20936;-69
2022/09/16 03:23:18;;;;;;;4.10;3.70;;;13.90;99.90;;;;;;5012079;28;20455;-69
2022/09/16 03:25:55;;;;;;;4.23;3.73;;;14.00;99.90;;;;;;5013274;28;20457;-68
2022/09/16 03:28:25;;;;;;;4.10;3.40;;;14.00;99.90;;;;;;5013066;28;20461;-69
2022/09/16 03:31:02;;;;;;;4.80;4.13;;;14.00;99.90;;;;;;5007721;28;20489;-70
2022/09/16 03:33:35;;;;;;;5.20;4.33;;;14.00;99.90;;;;;;4993783;28;20778;-69
2022/09/16 03:36:07;;;;;;;6.57;5.00;;;14.00;99.90;;;;;;5013569;28;20482;-69
2022/09/16 03:38:36;;;;;;;6.37;4.87;;;14.00;99.90;;;;;;4993013;28;20477;-69
2022/09/16 03:41:06;;;;;;;6.77;4.43;;;14.00;99.90;;;;;;5013701;28;20464;-69
2022/09/16 03:43:33;;;;;;;4.73;4.33;;;14.00;99.90;;;;;;5029872;28;21025;-69
2022/09/16 03:46:00;;;;;;;4.73;4.33;;;14.00;99.90;;;;;;5007459;28;20777;-71
2022/09/16 03:48:27;;;;;;;4.70;4.27;;;14.00;99.90;;;;;;4996128;28;20554;-69
2022/09/16 03:50:54;;;;;;;6.43;4.13;;;14.00;99.90;;;;;;5004693;28;20489;-70
2022/09/16 03:53:22;;;;;;;4.67;4.30;;;14.00;99.90;;;;;;5027000;28;20976;-70
2022/09/16 03:55:50;;;;;;;5.50;4.80;;;14.10;99.90;;;;;;5004233;28;20578;-69
2022/09/16 03:58:17;;;;;;;5.10;4.37;;;14.00;99.90;;;;;;5004797;28;20511;-70
2022/09/16 04:00:48;;;;;;;4.57;4.17;;;14.10;99.90;;;;;;5010270;28;20510;-70
2022/09/16 04:03:15;;;;;;;4.73;4.17;;;14.10;99.90;;;;;;5010721;28;20533;-69
2022/09/16 04:05:42;;;;;;;5.33;4.17;;;14.10;99.90;;;;;;5003207;28;20451;-69
2022/09/16 04:08:09;;;;;;;4.57;4.07;;;14.10;99.90;;;;;;5020114;28;20577;-68
2022/09/16 04:10:37;;;;;;;5.00;3.80;;;14.10;99.90;;;;;;5009520;28;20955;-69
2022/09/16 04:13:05;;;;;;;3.97;3.53;;;14.20;99.90;;;;;;5010340;28;20461;-71
2022/09/16 04:15:31;;;;;;;4.00;3.43;;;14.20;99.90;;;;;;5006032;28;20463;-65
2022/09/16 04:18:00;;;;;;;4.00;3.40;;;14.20;99.90;;;;;;5008537;28;20472;-66
2022/09/16 04:20:27;;;;;;;4.20;3.07;;;14.30;99.90;;;;;;5003209;28;20969;-66
2022/09/16 04:22:54;;;;;;;4.30;3.23;;;14.30;99.90;;;;;;5005258;28;20788;-65
2022/09/16 04:25:21;;;;;;;3.80;3.40;;;14.30;99.90;;;;;;5010377;28;20473;-66
2022/09/16 04:27:50;;;;;;;3.80;3.50;;;14.30;99.90;;;;;;5004172;28;20478;-65
2022/09/16 04:30:17;;;;;;;4.40;3.53;;;14.40;99.90;;;;;;5005495;28;20488;-65
2022/09/16 04:32:44;;;;;;;4.40;3.67;;;14.40;99.90;;;;;;5010205;28;20455;-65
2022/09/16 04:35:12;;;;;;;3.90;3.33;;;14.40;99.90;;;;;;5021523;28;20465;-65
2022/09/16 04:37:38;;;;;;;4.60;3.37;;;14.40;99.90;;;;;;5010911;28;20541;-65
2022/09/16 04:40:06;;;;;;;5.13;3.73;;;14.40;99.90;;;;;;5014509;28;20538;-66
2022/09/16 04:42:33;;;;;;;4.70;4.00;;;14.50;99.90;;;;;;5010388;28;20456;-65
2022/09/16 04:45:02;;;;;;;5.30;4.33;;;14.80;99.90;;;;;;5001794;28;20461;-65
2022/09/16 04:47:29;;;;;;;12.67;5.60;;;14.50;99.90;;;;;;5005863;28;20579;-68
2022/09/16 04:49:56;;;;;;;5.63;5.07;;;14.60;99.90;;;;;;4998493;28;20594;-69
2022/09/16 04:52:23;;;;;;;5.20;4.67;;;14.60;99.90;;;;;;4995721;28;20456;-68
2022/09/16 04:54:50;;;;;;;7.80;4.50;;;14.60;99.90;;;;;;5009459;28;20553;-68
2022/09/16 04:57:17;;;;;;;5.00;4.53;;;14.60;99.90;;;;;;5005996;28;20584;-67
2022/09/16 04:59:44;;;;;;;6.80;4.47;;;14.60;99.90;;;;;;5007079;28;20462;-68
2022/09/16 05:02:12;;;;;;;5.13;4.63;;;14.60;99.90;;;;;;5005653;28;20467;-69
2022/09/16 05:04:39;;;;;;;4.67;4.20;;;14.60;99.90;;;;;;5006226;28;20460;-68
2022/09/16 05:07:07;;;;;;;7.50;4.60;;;14.60;99.90;;;;;;5007532;28;20482;-69
2022/09/16 05:09:36;;;;;;;4.50;4.10;;;14.60;99.90;;;;;;5007021;28;20464;-79
2022/09/16 05:12:03;;;;;;;8.60;4.97;;;14.60;99.90;;;;;;5010114;28;20466;-75
2022/09/16 05:14:30;;;;;;;5.53;4.80;;;14.60;99.90;;;;;;5001018;28;20487;-75
2022/09/16 05:16:57;;;;;;;5.47;4.40;;;14.50;99.90;;;;;;5010361;28;20495;-75
2022/09/16 05:19:25;;;;;;;5.57;4.87;;;14.50;99.90;;;;;;5004483;28;20470;-75
2022/09/16 05:21:52;;;;;;;4.60;4.20;;;14.50;99.90;;;;;;5009159;28;20459;-76
2022/09/16 05:24:19;;;;;;;4.97;4.57;;;14.50;99.90;;;;;;5007460;28;20498;-76
2022/09/16 05:26:46;;;;;;;7.03;4.40;;;14.50;99.90;;;;;;5009689;28;20452;-76
2022/09/16 05:29:16;;;;;;;5.50;4.07;;;14.50;99.90;;;;;;5006466;28;20638;-76
2022/09/16 05:31:46;;;;;;;4.33;3.93;;;14.50;99.90;;;;;;5005874;28;20541;-79
2022/09/16 05:34:14;;;;;;;5.70;4.80;;;14.50;99.90;;;;;;5007047;28;20457;-77
2022/09/16 05:36:46;;;;;;;4.73;4.20;;;14.40;99.90;;;;;;5009576;28;20564;-76
2022/09/16 05:39:14;;;;;;;5.50;4.03;;;14.40;99.90;;;;;;5008739;28;20444;-76
2022/09/16 05:41:41;;;;;;;4.60;4.20;;;14.40;99.90;;;;;;5005513;28;20942;-76
2022/09/16 05:44:08;;;;;;;4.10;3.70;;;14.40;99.90;;;;;;4990780;28;20539;-76
2022/09/16 05:46:36;;;;;;;4.33;3.80;;;14.40;99.90;;;;;;5007175;28;20546;-77
2022/09/16 05:49:03;;;;;;;5.60;4.70;;;14.60;99.90;;;;;;5009804;28;20942;-77
2022/09/16 05:51:30;;;;;;;5.27;4.10;;;14.50;99.90;;;;;;5009536;28;20489;-76
2022/09/16 05:53:59;;;;;;;4.57;4.17;;;14.50;99.90;;;;;;5010990;28;20581;-76
2022/09/16 05:56:28;;;;;;;5.00;4.20;;;14.50;99.90;;;;;;5013551;28;20479;-76
2022/09/16 05:58:58;;;;;;;5.60;4.40;;;14.50;99.90;;;;;;5013955;28;20447;-77
2022/09/16 06:01:28;;;;;;;3.70;3.40;;;14.60;99.90;;;;;;5000085;28;20552;-76
2022/09/16 06:03:55;;;;;;;4.57;4.17;;;14.50;99.90;;;;;;5013008;28;20540;-76
2022/09/16 06:06:24;;;;;;;5.63;3.80;;;14.60;99.90;;;;;;5013641;28;20527;-77
2022/09/16 06:08:52;;;;;;;4.37;3.80;;;14.60;99.90;;;;;;5013933;28;21006;-77
2022/09/16 06:11:22;;;;;;;4.93;3.60;;;14.60;99.90;;;;;;5010750;28;21135;-76
2022/09/16 06:13:54;;;;;;;4.27;3.77;;;14.60;99.90;;;;;;5012489;28;20459;-77
2022/09/16 06:16:22;;;;;;;5.13;3.93;;;14.60;99.90;;;;;;5010811;28;20874;-76
2022/09/16 06:18:49;;;;;;;5.20;3.70;;;14.70;99.90;;;;;;5013498;28;20895;-76
2022/09/16 06:21:16;;;;;;;3.63;3.00;;;14.70;99.90;;;;;;5012494;28;20476;-77
2022/09/16 06:23:43;;;;;;;5.13;4.07;;;14.70;99.90;;;;;;5012410;28;21020;-76
2022/09/16 06:26:14;;;;;;;4.57;3.30;;;14.70;99.90;;;;;;5012173;28;20827;-76
2022/09/16 06:28:43;;;;;;;4.00;3.47;;;14.70;99.90;;;;;;5014191;28;20523;-77
2022/09/16 06:31:12;;;;;;;4.07;3.70;;;14.70;99.90;;;;;;5012459;28;20465;-76
2022/09/16 06:33:39;;;;;;;4.23;3.20;;;14.60;99.90;;;;;;5012203;28;20538;-77
2022/09/16 06:36:09;;;;;;;4.33;3.67;;;14.60;99.90;;;;;;5013555;28;20531;-76
2022/09/16 06:38:36;;;;;;;5.07;3.70;;;14.60;99.90;;;;;;5012814;28;20523;-78
2022/09/16 06:41:05;;;;;;;5.63;3.40;;;14.60;99.90;;;;;;5011386;28;20590;-72
2022/09/16 06:43:32;;;;;;;4.60;3.00;;;14.60;99.90;;;;;;5013034;28;20464;-73
2022/09/16 06:46:02;;;;;;;4.80;4.00;;;14.60;99.90;;;;;;5013029;28;20499;-73
2022/09/16 06:48:33;;;;;;;6.03;3.97;;;14.60;99.90;;;;;;5013713;28;20464;-73
2022/09/16 06:51:01;;;;;;;7.07;3.57;;;14.50;99.90;;;;;;5010707;28;21036;-73
2022/09/16 06:53:29;;;;;;;4.20;3.67;;;14.50;99.90;;;;;;5011798;28;20491;-73
2022/09/16 06:56:00;;;;;;;4.00;3.37;;;14.40;99.90;;;;;;5012571;28;20993;-72
2022/09/16 06:58:29;;;;;;;5.00;4.20;;;14.30;99.90;;;;;;5012678;28;20613;-73
2022/09/16 07:00:56;;;;;;;4.30;3.90;;;14.20;99.90;;;;;;5009260;28;20455;-73
2022/09/16 07:03:24;;;;;;;4.57;4.10;;;14.20;99.90;;;;;;5009752;28;20463;-73
2022/09/16 07:05:59;;;;;;;7.00;4.23;;;14.20;99.90;;;;;;5008644;28;20491;-73
2022/09/16 07:08:27;;;;;;;5.20;4.30;;;14.20;99.90;;;;;;5012914;28;20505;-73
2022/09/16 07:10:59;;;;;;;7.93;4.57;;;14.20;99.90;;;;;;5011504;28;20466;-72
2022/09/16 07:13:26;;;;;;;5.13;4.67;;;14.20;99.90;;;;;;5010676;28;20540;-72
2022/09/16 07:15:53;;;;;;;4.80;4.30;;;14.20;99.90;;;;;;5010644;28;20511;-72
2022/09/16 07:18:21;;;;;;;4.07;3.77;;;14.20;99.90;;;;;;5012101;28;20497;-73
2022/09/16 07:20:49;;;;;;;5.13;4.60;;;14.10;99.90;;;;;;5010445;28;20508;-72
2022/09/16 07:23:16;;;;;;;4.93;4.43;;;14.10;99.90;;;;;;5010908;28;20452;-72
2022/09/16 07:25:43;;;;;;;5.50;4.60;;;14.00;99.90;;;;;;5012235;28;20459;-73
2022/09/16 07:28:10;;;;;;;6.70;4.87;;;14.00;99.90;;;;;;5011920;28;20472;-72
2022/09/16 07:30:37;;;;;;;4.90;4.40;;;14.00;99.90;;;;;;5011085;28;20458;-72
2022/09/16 07:33:04;;;;;;;4.73;3.67;;;13.90;99.90;;;;;;4992666;28;20550;-72
2022/09/16 07:35:31;;;;;;;5.07;4.50;;;13.90;99.90;;;;;;5006569;28;20455;-73
2022/09/16 07:38:00;;;;;;;5.00;4.60;;;13.90;99.90;;;;;;5011749;28;20589;-73
2022/09/16 07:40:27;;;;;;;5.23;4.73;;;13.90;99.90;;;;;;5007612;28;20447;-72
2022/09/16 07:42:54;;;;;;;5.53;4.90;;;13.80;99.90;;;;;;5010255;28;20455;-72
2022/09/16 07:45:21;;;;;;;4.67;4.27;;;13.80;99.90;;;;;;5011146;28;20531;-71
2022/09/16 07:47:49;;;;;;;5.53;4.47;;;13.90;99.90;;;;;;5011881;28;20460;-72
2022/09/16 07:50:16;;;;;;;5.03;4.60;;;13.90;99.90;;;;;;5011551;28;20462;-72
2022/09/16 07:52:43;;;;;;;4.97;4.30;;;13.90;99.90;;;;;;4992315;28;20460;-71
2022/09/16 07:55:14;;;;;;;6.70;4.30;;;13.90;99.90;;;;;;5010049;28;20508;-71
2022/09/16 07:57:41;;;;;;;5.30;4.87;;;13.90;99.90;;;;;;4992139;28;20502;-71
2022/09/16 08:00:10;;;;;;;6.07;4.00;;;13.80;99.90;;;;;;5003832;28;20538;-71
2022/09/16 08:02:37;;;;;;;4.43;4.03;;;13.90;99.90;;;;;;5010059;28;20475;-70
2022/09/16 08:05:04;;;;;;;6.00;4.40;;;13.90;99.90;;;;;;5011250;28;20831;-71
2022/09/16 08:07:31;;;;;;;5.07;4.03;;;13.90;99.90;;;;;;5011324;28;20465;-71
2022/09/16 08:09:58;;;;;;;5.67;4.77;;;14.00;99.90;;;;;;5011223;28;20459;-72
2022/09/16 08:12:31;;;;;;;5.23;4.67;;;14.00;99.90;;;;;;4996749;28;20819;-71
2022/09/16 08:14:58;;;;;;;6.10;4.87;;;14.00;99.90;;;;;;5000079;28;20535;-71
2022/09/16 08:17:26;;;;;;;5.77;5.23;;;14.00;99.90;;;;;;5009270;28;20497;-71
2022/09/16 08:19:54;;;;;;;6.70;6.10;;;14.00;99.90;;;;;;5011569;28;20455;-72
2022/09/16 08:22:22;;;;;;;6.43;5.60;;;14.00;99.90;;;;;;5009558;28;20486;-71
2022/09/16 08:24:49;;;;;;;6.03;5.43;;;14.00;99.90;;;;;;5010649;28;20451;-71
2022/09/16 08:27:16;;;;;;;6.77;6.07;;;14.00;99.90;;;;;;5011190;28;20839;-71
2022/09/16 08:29:44;;;;;;;6.63;5.80;;;14.10;99.90;;;;;;5005491;28;20454;-71
2022/09/16 08:32:11;;;;;;;6.27;5.40;;;14.10;99.90;;;;;;5010392;28;20969;-71
2022/09/16 08:34:39;;;;;;;5.40;5.00;;;14.10;99.90;;;;;;5002950;28;20551;-71
2022/09/16 08:37:06;;;;;;;5.20;4.80;;;14.00;99.90;;;;;;4997645;28;20463;-70
2022/09/16 08:39:33;;;;;;;5.60;4.63;;;14.00;99.90;;;;;;5002405;28;20541;-71
2022/09/16 08:42:31;;;;;;;5.70;5.20;;;14.30;99.90;;;;;;5000617;28;21086;-72
2022/09/16 08:45:19;;;;;;;6.33;5.73;;;14.10;99.90;;;;;;5003519;28;20469;-72
2022/09/16 08:47:55;;;;;;;5.30;4.33;;;14.10;99.90;;;;;;4991637;28;20470;-71
2022/09/16 08:50:28;;;;;;;4.63;4.30;;;14.20;99.90;;;;;;5008552;28;20484;-72
2022/09/16 08:52:58;;;;;;;5.40;4.17;;;14.20;99.90;;;;;;4994022;28;20559;-72
2022/09/16 08:55:30;;;;;;;5.63;4.80;;;14.20;99.90;;;;;;5002118;28;20455;-72
2022/09/16 08:58:02;;;;;;;5.30;4.63;;;14.30;99.90;;;;;;5010295;28;20477;-72
2022/09/16 09:00:31;;;;;;;4.53;4.13;;;14.30;99.90;;;;;;5010270;28;20825;-72
2022/09/16 09:03:14;;;;;;;5.23;4.80;;;14.30;99.90;;;;;;5010481;28;20951;-72
2022/09/16 09:05:49;;;;;;;4.77;4.23;;;14.30;99.90;;;;;;5002237;28;20497;-72
2022/09/16 09:08:33;;;;;;;4.40;4.10;;;14.30;99.90;;;;;;4998677;28;20971;-71
2022/09/16 09:11:10;;;;;;;6.17;4.37;;;14.40;99.90;;;;;;5010029;28;20447;-71
2022/09/16 09:13:59;;;;;;;4.60;4.20;;;14.50;99.90;;;;;;5010608;28;20456;-71
2022/09/16 09:16:37;;;;;;;5.90;4.90;;;14.50;99.90;;;;;;5009822;28;20482;-72
2022/09/16 09:19:23;;;;;;;5.60;4.23;;;14.60;99.90;;;;;;5010486;28;20498;-71
2022/09/16 09:21:59;;;;;;;4.53;3.60;;;14.50;99.90;;;;;;5010245;28;20450;-72
2022/09/16 09:24:40;;;;;;;5.17;4.07;;;14.40;99.90;;;;;;5009058;28;20964;-71
2022/09/16 09:27:14;;;;;;;4.77;4.33;;;14.60;99.90;;;;;;5008877;28;20566;-71
2022/09/16 09:30:02;;;;;;;5.57;4.20;;;14.40;99.90;;;;;;5005160;28;20478;-71
2022/09/16 09:32:42;;;;;;;5.07;4.50;;;14.30;99.90;;;;;;5013917;28;20981;-72
2022/09/16 09:35:21;;;;;;;5.27;4.77;;;14.30;99.90;;;;;;5013315;28;20465;-71
2022/09/16 09:38:06;;;;;;;6.77;4.90;;;14.30;99.90;;;;;;5014756;28;20867;-71
2022/09/16 09:40:39;;;;;;;5.13;4.60;;;14.30;99.90;;;;;;5013793;28;20453;-71
2022/09/16 09:43:12;;;;;;;6.33;5.13;;;14.30;99.90;;;;;;5013735;28;20787;-71
2022/09/16 09:45:43;;;;;;;5.50;5.07;;;14.30;99.90;;;;;;5012851;28;20472;-71
2022/09/16 09:48:18;;;;;;;5.40;4.90;;;14.30;99.90;;;;;;5014409;28;20455;-72
2022/09/16 09:50:47;;;;;;;6.77;6.23;;;14.40;99.90;;;;;;5013392;28;20495;-72
2022/09/16 09:53:20;;;;;;;5.73;4.53;;;14.50;99.90;;;;;;5004941;28;20489;-71
2022/09/16 09:55:48;;;;;;;5.50;5.00;;;14.70;99.90;;;;;;5009169;28;20530;-71
2022/09/16 09:58:23;;;;;;;6.37;5.27;;;14.80;99.90;;;;;;5013358;28;20525;-71
2022/09/16 10:00:51;;;;;;;5.43;4.93;;;14.90;99.90;;;;;;5013047;28;20463;-71
2022/09/16 10:03:20;;;;;;;7.80;6.80;;;14.90;99.90;;;;;;5012182;28;20551;-71
2022/09/16 10:05:47;;;;;;;7.00;6.13;;;14.90;99.90;;;;;;5013847;28;20472;-71
2022/09/16 10:08:22;;;;;;;5.20;4.80;;;14.90;99.90;;;;;;5014149;28;20470;-71
2022/09/16 10:10:51;;;;;;;6.13;5.00;;;14.90;99.90;;;;;;5012575;28;22275;-71
2022/09/16 10:13:19;;;;;;;5.27;4.87;;;15.00;99.90;;;;;;5012911;28;20546;-71
2022/09/16 10:15:49;;;;;;;4.63;4.23;;;15.00;99.90;;;;;;5013527;28;21050;-72
2022/09/16 10:18:24;;;;;;;6.33;4.83;;;15.00;99.90;;;;;;5012619;28;20518;-71
2022/09/16 10:21:02;;;;;;;4.60;4.27;;;15.00;99.90;;;;;;5012721;28;20458;-72
2022/09/16 10:23:29;;;;;;;5.30;4.80;;;14.90;99.90;;;;;;5012512;28;20498;-71
2022/09/16 10:26:16;;;;;;;4.93;4.43;;;14.80;99.90;;;;;;5015792;28;20582;-75
2022/09/16 10:28:58;;;;;;;4.87;4.47;;;14.80;99.90;;;;;;5005948;28;20466;-74
2022/09/16 10:31:28;;;;;;;5.67;5.17;;;14.80;99.90;;;;;;4996537;28;20523;-76
2022/09/16 10:33:58;;;;;;;4.80;4.30;;;14.80;99.90;;;;;;5011852;28;20490;-77
2022/09/16 10:36:32;;;;;;;3.50;3.10;;;14.70;99.90;;;;;;5014164;28;21232;-77
2022/09/16 10:39:01;;;;;;;5.10;4.10;;;14.70;99.90;;;;;;5016419;28;20481;-77
2022/09/16 10:41:32;;;;;;;4.77;3.47;;;14.70;99.90;;;;;;5012882;28;20963;-78
2022/09/16 10:44:01;;;;;;;4.07;3.13;;;14.60;99.90;;;;;;5011341;28;20460;-77
2022/09/16 10:46:29;;;;;;;4.13;3.73;;;14.70;99.90;;;;;;5012803;28;20479;-77
2022/09/16 10:49:01;;;;;;;4.83;3.43;;;14.70;99.90;;;;;;5013356;28;20476;-77
2022/09/16 10:51:32;;;;;;;5.50;3.90;;;14.70;99.90;;;;;;5011747;28;20536;-77
2022/09/16 10:54:00;;;;;;;7.03;4.67;;;14.80;99.90;;;;;;5006674;28;20539;-78
2022/09/16 10:56:29;;;;;;;4.90;4.40;;;14.80;99.90;;;;;;5011069;28;20461;-78
2022/09/16 10:59:04;;;;;;;5.23;4.70;;;14.90;99.90;;;;;;5012275;28;20481;-78
2022/09/16 11:01:42;;;;;;;6.70;4.20;;;14.90;99.90;;;;;;5011686;28;20985;-77
2022/09/16 11:04:31;;;;;;;4.27;3.97;;;15.00;99.90;;;;;;5012850;28;20927;-77
2022/09/16 11:07:15;;;;;;;4.57;4.10;;;15.00;99.90;;;;;;5012990;28;20522;-77
2022/09/16 11:09:54;;;;;;;4.70;4.30;;;15.00;99.90;;;;;;4993110;28;20848;-78
2022/09/16 11:12:53;;;;;;;5.07;4.67;;;15.00;99.90;;;;;;4998849;28;20782;-78
2022/09/16 11:15:32;;;;;;;7.33;4.60;;;15.00;99.90;;;;;;5000282;28;20605;-77
2022/09/16 11:18:12;;;;;;;6.27;4.60;;;14.90;99.90;;;;;;4992653;28;20449;-77
2022/09/16 11:20:52;;;;;;;4.80;4.07;;;14.80;99.90;;;;;;4997788;28;20517;-77
2022/09/16 11:23:36;;;;;;;4.40;3.93;;;14.80;99.90;;;;;;5012087;28;20488;-76
2022/09/16 11:26:11;;;;;;;4.50;4.10;;;14.80;99.90;;;;;;5012913;28;20551;-76
2022/09/16 11:28:59;;;;;;;4.00;3.40;;;14.80;99.90;;;;;;4996620;28;20532;-76
2022/09/16 11:31:36;;;;;;;4.80;3.63;;;14.90;99.90;;;;;;5010785;28;20491;-77
2022/09/16 11:34:13;;;;;;;3.93;3.60;;;14.80;99.90;;;;;;5012508;28;20554;-76
2022/09/16 11:36:56;;;;;;;4.30;3.10;;;14.80;99.90;;;;;;5012273;28;20941;-77
2022/09/16 11:39:44;;;;;;;4.27;3.50;;;14.90;99.90;;;;;;5012198;28;20487;-76
2022/09/16 11:42:19;;;;;;;4.00;3.47;;;14.90;99.90;;;;;;5011312;28;20554;-77
2022/09/16 11:44:52;;;;;;;2.93;2.73;;;14.80;99.90;;;;;;5012025;28;20527;-77
2022/09/16 11:47:37;;;;;;;3.70;3.10;;;14.70;99.90;;;;;;5012387;28;20454;-78
2022/09/16 11:50:20;;;;;;;3.63;3.33;;;14.70;99.90;;;;;;5010847;28;20542;-78
2022/09/16 11:53:09;;;;;;;5.67;3.37;;;14.80;99.90;;;;;;5011610;28;20495;-78
2022/09/16 11:55:47;;;;;;;4.47;3.23;;;14.80;99.90;;;;;;5011332;28;21002;-77
2022/09/16 11:58:37;;;;;;;5.00;3.20;;;14.90;99.90;;;;;;5012410;28;20452;-76
2022/09/16 12:01:18;;;;;;;4.40;2.57;;;15.00;99.90;;;;;;5009613;28;20525;-77
2022/09/16 12:03:52;;;;;;;4.13;2.80;;;15.10;99.90;;;;;;5011561;28;20538;-77
2022/09/16 12:06:23;;;;;;;3.43;2.33;;;15.30;99.90;;;;;;5010846;28;20564;-77
2022/09/16 12:08:58;;;;;;;4.77;2.10;;;15.50;99.90;;;;;;5011920;28;20489;-77
2022/09/16 12:11:31;;;;;;;1.93;1.73;;;16.00;99.90;;;;;;5011919;28;20437;-77
2022/09/16 12:14:06;;;;;;;3.13;2.13;;;16.30;99.90;;;;;;5011948;28;20483;-77
2022/09/16 12:16:39;;;;;;;2.87;1.53;;;16.50;99.90;;;;;;4992436;28;20465;-76
2022/09/16 12:19:13;;;;;;;3.80;1.53;;;16.50;99.90;;;;;;5000417;28;20555;-76
2022/09/16 12:21:45;;;;;;;2.77;2.10;;;16.30;99.90;;;;;;5011647;28;20441;-76
2022/09/16 12:24:20;;;;;;;7.40;2.23;;;16.20;99.90;;;;;;5010427;28;21051;-78
2022/09/16 12:26:52;;;;;;;3.47;1.70;;;16.30;99.90;;;;;;5010467;28;20476;-77
2022/09/16 12:29:23;;;;;;;1.97;1.80;;;16.50;99.90;;;;;;4992610;28;20881;-76
2022/09/16 12:31:55;;;;;;;3.80;1.83;;;17.10;99.90;;;;;;4992062;28;20450;-79
2022/09/16 12:34:27;;;;;;;4.57;2.40;;;17.90;99.90;;;;;;5007853;28;20445;-76
2022/09/16 12:37:00;;;;;;;4.47;1.83;;;18.50;99.90;;;;;;5011124;28;20470;-77
2022/09/16 12:39:29;;;;;;;2.27;2.00;;;19.10;99.90;;;;;;5011655;28;21233;-76
2022/09/16 12:42:20;;;;;;;3.27;1.70;;;19.40;99.90;;;;;;5011479;28;20790;-76
2022/09/16 12:45:07;;;;;;;2.43;1.80;;;19.40;99.90;;;;;;5009841;28;20493;-77
2022/09/16 12:48:08;;;;;;;2.97;1.70;;;19.80;99.90;;;;;;5011210;28;20447;-76
2022/09/16 12:50:52;;;;;;;2.70;1.50;;;19.90;99.90;;;;;;5011746;28;20451;-76
2022/09/16 12:53:48;;;;;;;3.70;1.93;;;19.90;99.90;;;;;;5011318;28;20490;-77
2022/09/16 12:56:30;;;;;;;2.10;1.50;;;20.00;99.90;;;;;;5007468;28;20478;-76
2022/09/16 12:59:16;;;;;;;2.40;1.60;;;20.60;99.90;;;;;;5011776;28;20477;-77
2022/09/16 13:01:46;;;;;;;3.47;1.97;;;21.10;99.90;;;;;;5011025;28;20536;-76
2022/09/16 13:04:17;;;;;;;3.10;1.40;;;21.50;99.90;;;;;;5011989;28;20439;-76
2022/09/16 13:06:47;;;;;;;2.90;1.40;;;21.10;99.90;;;;;;5015328;28;20464;-77
2022/09/16 13:09:22;;;;;;;1.47;1.30;;;21.20;99.90;;;;;;5008374;28;20451;-77
2022/09/16 13:11:56;;;;;;;2.33;1.40;;;21.30;99.70;;;;;;4998791;28;20468;-78
2022/09/16 13:14:28;;;;;;;3.90;1.73;;;21.20;99.90;;;;;;5001327;28;20503;-76